CheckWX is a tool to help pilots better visualize weather data.  It is not intended as a substitute for an official pre-flight weather briefing.

01:07:49 UTC

F45 METAR
North Palm Beach County General Aviation Airport
West Palm Beach, Florida, USA
Current

33 mins ago

KF45 270035Z AUTO 10005KT 10SM BKN075 OVC085 22/20 A2996 RMK AO2 LTG DSNT SE
Observed
Mar-27 @ 00:35 UTC
Wind
  • 100° at 5 KTS
Visibility
10 SM
Flight Rules
VFR
Cloud Levels
  • Broken at 7,500' AGL
  • Overcast at 8,500' AGL
Temperature
22°C / 72°F
Dewpoint
20°C / 68°F
Humidity
88%
Altimeter
29.96" Hg
Pressure
1014.52 hPa
Previous

53 mins ago

KF45 270015Z AUTO 09007KT 10SM SCT075 22/19 A2996 RMK AO2
Observed
Mar-27 @ 00:15 UTC
Wind
  • 090° at 7 KTS
Visibility
10 SM
Flight Rules
VFR
Cloud Levels
  • Scattered at 7,500' AGL
Temperature
22°C / 72°F
Dewpoint
19°C / 66°F
Humidity
83%
Altimeter
29.96" Hg
Pressure
1014.52 hPa
Previous

1 hour ago

KF45 262355Z AUTO 10008KT 10SM CLR 23/19 A2995 RMK AO2
Observed
Mar-26 @ 23:55 UTC
Wind
  • 100° at 8 KTS
Visibility
10 SM
Flight Rules
VFR
Cloud Levels
  • Clear skies
Temperature
23°C / 73°F
Dewpoint
19°C / 66°F
Humidity
78%
Altimeter
29.95" Hg
Pressure
1014.22 hPa